sensor_id;sensor_type;location;lat;lon;timestamp;temperature;humidity
8896;DHT22;4484;48.928;10.066;2022-10-22T00:00:08;12.70;99.90
8896;DHT22;4484;48.928;10.066;2022-10-22T00:02:35;12.70;99.90
8896;DHT22;4484;48.928;10.066;2022-10-22T00:05:03;12.70;99.90
8896;DHT22;4484;48.928;10.066;2022-10-22T00:07:31;12.70;99.90
8896;DHT22;4484;48.928;10.066;2022-10-22T00:09:58;12.60;99.90
8896;DHT22;4484;48.928;10.066;2022-10-22T00:12:24;12.60;99.90
8896;DHT22;4484;48.928;10.066;2022-10-22T00:14:51;12.60;99.90
8896;DHT22;4484;48.928;10.066;2022-10-22T00:17:19;12.60;99.90
8896;DHT22;4484;48.928;10.066;2022-10-22T00:19:45;12.50;99.90
8896;DHT22;4484;48.928;10.066;2022-10-22T00:22:14;12.60;99.90
8896;DHT22;4484;48.928;10.066;2022-10-22T00:24:41;12.60;99.90
8896;DHT22;4484;48.928;10.066;2022-10-22T00:27:10;12.50;99.90
8896;DHT22;4484;48.928;10.066;2022-10-22T00:29:37;12.50;99.90
8896;DHT22;4484;48.928;10.066;2022-10-22T00:32:04;12.50;99.90
8896;DHT22;4484;48.928;10.066;2022-10-22T00:34:33;12.50;99.90
8896;DHT22;4484;48.928;10.066;2022-10-22T00:36:59;12.50;99.90
8896;DHT22;4484;48.928;10.066;2022-10-22T00:39:27;12.50;99.90
8896;DHT22;4484;48.928;10.066;2022-10-22T00:41:56;12.50;99.90
8896;DHT22;4484;48.928;10.066;2022-10-22T00:47:54;12.40;99.90
8896;DHT22;4484;48.928;10.066;2022-10-22T00:50:24;12.40;99.90
8896;DHT22;4484;48.928;10.066;2022-10-22T00:52:53;12.40;99.90
8896;DHT22;4484;48.928;10.066;2022-10-22T00:55:21;12.30;99.90
8896;DHT22;4484;48.928;10.066;2022-10-22T00:57:49;12.30;99.90
8896;DHT22;4484;48.928;10.066;2022-10-22T01:00:16;12.30;99.90
8896;DHT22;4484;48.928;10.066;2022-10-22T01:02:43;12.30;99.90
8896;DHT22;4484;48.928;10.066;2022-10-22T01:05:11;12.30;99.90
8896;DHT22;4484;48.928;10.066;2022-10-22T01:07:44;12.20;99.90
8896;DHT22;4484;48.928;10.066;2022-10-22T01:18:00;12.20;99.90
8896;DHT22;4484;48.928;10.066;2022-10-22T01:26:03;12.10;99.90
8896;DHT22;4484;48.928;10.066;2022-10-22T01:31:21;12.10;99.90
8896;DHT22;4484;48.928;10.066;2022-10-22T01:33:50;12.10;99.90
8896;DHT22;4484;48.928;10.066;2022-10-22T01:36:19;12.10;99.90
8896;DHT22;4484;48.928;10.066;2022-10-22T01:38:48;12.10;99.90
8896;DHT22;4484;48.928;10.066;2022-10-22T01:41:16;12.10;99.90
8896;DHT22;4484;48.928;10.066;2022-10-22T01:43:44;12.10;99.90
8896;DHT22;4484;48.928;10.066;2022-10-22T01:46:12;12.10;99.90
8896;DHT22;4484;48.928;10.066;2022-10-22T01:49:20;12.10;99.90
8896;DHT22;4484;48.928;10.066;2022-10-22T01:54:58;12.20;99.90
8896;DHT22;4484;48.928;10.066;2022-10-22T01:58:01;12.10;99.90
8896;DHT22;4484;48.928;10.066;2022-10-22T02:00:29;12.20;99.90
8896;DHT22;4484;48.928;10.066;2022-10-22T02:03:12;12.20;99.90
8896;DHT22;4484;48.928;10.066;2022-10-22T02:05:53;12.20;99.90
8896;DHT22;4484;48.928;10.066;2022-10-22T02:08:24;12.10;99.90
8896;DHT22;4484;48.928;10.066;2022-10-22T02:10:54;12.10;99.90
8896;DHT22;4484;48.928;10.066;2022-10-22T02:13:24;12.00;99.90
8896;DHT22;4484;48.928;10.066;2022-10-22T02:15:53;12.00;99.90
8896;DHT22;4484;48.928;10.066;2022-10-22T02:18:25;12.00;99.90
8896;DHT22;4484;48.928;10.066;2022-10-22T02:20:54;11.90;99.90
8896;DHT22;4484;48.928;10.066;2022-10-22T02:23:22;11.90;99.90
8896;DHT22;4484;48.928;10.066;2022-10-22T02:25:55;11.80;99.90
8896;DHT22;4484;48.928;10.066;2022-10-22T02:28:43;11.80;99.90
8896;DHT22;4484;48.928;10.066;2022-10-22T02:31:21;11.80;99.90
8896;DHT22;4484;48.928;10.066;2022-10-22T02:33:53;11.80;99.90
8896;DHT22;4484;48.928;10.066;2022-10-22T02:36:22;11.80;99.90
8896;DHT22;4484;48.928;10.066;2022-10-22T02:38:51;11.70;99.90
8896;DHT22;4484;48.928;10.066;2022-10-22T02:41:18;11.70;99.90
8896;DHT22;4484;48.928;10.066;2022-10-22T02:43:52;11.70;99.90
8896;DHT22;4484;48.928;10.066;2022-10-22T02:46:20;11.70;99.90
8896;DHT22;4484;48.928;10.066;2022-10-22T02:48:47;11.70;99.90
8896;DHT22;4484;48.928;10.066;2022-10-22T02:51:15;11.70;99.90
8896;DHT22;4484;48.928;10.066;2022-10-22T02:53:42;11.60;99.90
8896;DHT22;4484;48.928;10.066;2022-10-22T02:56:09;11.60;99.90
8896;DHT22;4484;48.928;10.066;2022-10-22T02:58:36;11.60;99.90
8896;DHT22;4484;48.928;10.066;2022-10-22T03:01:03;11.60;99.90
8896;DHT22;4484;48.928;10.066;2022-10-22T03:03:30;11.50;99.90
8896;DHT22;4484;48.928;10.066;2022-10-22T03:05:57;11.50;99.90
8896;DHT22;4484;48.928;10.066;2022-10-22T03:08:24;11.50;99.90
8896;DHT22;4484;48.928;10.066;2022-10-22T03:10:51;11.50;99.90
8896;DHT22;4484;48.928;10.066;2022-10-22T03:13:18;11.50;99.90
8896;DHT22;4484;48.928;10.066;2022-10-22T03:15:48;11.50;99.90
8896;DHT22;4484;48.928;10.066;2022-10-22T03:18:16;11.50;99.90
8896;DHT22;4484;48.928;10.066;2022-10-22T03:20:43;11.50;99.90
8896;DHT22;4484;48.928;10.066;2022-10-22T03:23:11;11.50;99.90
8896;DHT22;4484;48.928;10.066;2022-10-22T03:25:41;11.50;99.90
8896;DHT22;4484;48.928;10.066;2022-10-22T03:28:09;11.50;99.90
8896;DHT22;4484;48.928;10.066;2022-10-22T03:30:37;11.50;99.90
8896;DHT22;4484;48.928;10.066;2022-10-22T03:33:04;11.50;99.90
8896;DHT22;4484;48.928;10.066;2022-10-22T03:35:33;11.50;99.90
8896;DHT22;4484;48.928;10.066;2022-10-22T03:38:03;11.50;99.90
8896;DHT22;4484;48.928;10.066;2022-10-22T03:40:30;11.40;99.90
8896;DHT22;4484;48.928;10.066;2022-10-22T03:42:57;11.40;99.90
8896;DHT22;4484;48.928;10.066;2022-10-22T03:45:24;11.40;99.90
8896;DHT22;4484;48.928;10.066;2022-10-22T03:47:51;11.40;99.90
8896;DHT22;4484;48.928;10.066;2022-10-22T03:50:18;11.30;99.90
8896;DHT22;4484;48.928;10.066;2022-10-22T03:52:45;11.30;99.90
8896;DHT22;4484;48.928;10.066;2022-10-22T03:55:11;11.30;99.90
8896;DHT22;4484;48.928;10.066;2022-10-22T03:57:38;11.30;99.90
8896;DHT22;4484;48.928;10.066;2022-10-22T04:00:06;11.30;99.90
8896;DHT22;4484;48.928;10.066;2022-10-22T04:02:36;11.30;99.90
8896;DHT22;4484;48.928;10.066;2022-10-22T04:05:03;11.30;99.90
8896;DHT22;4484;48.928;10.066;2022-10-22T04:07:30;11.20;99.90
8896;DHT22;4484;48.928;10.066;2022-10-22T04:09:57;11.20;99.90
8896;DHT22;4484;48.928;10.066;2022-10-22T04:12:23;11.20;99.90
8896;DHT22;4484;48.928;10.066;2022-10-22T04:14:50;11.20;99.90
8896;DHT22;4484;48.928;10.066;2022-10-22T04:17:17;11.20;99.90
8896;DHT22;4484;48.928;10.066;2022-10-22T04:19:44;11.20;99.90
8896;DHT22;4484;48.928;10.066;2022-10-22T04:22:11;11.20;99.90
8896;DHT22;4484;48.928;10.066;2022-10-22T04:24:38;11.20;99.90
8896;DHT22;4484;48.928;10.066;2022-10-22T04:27:05;11.10;99.90
8896;DHT22;4484;48.928;10.066;2022-10-22T04:29:32;11.10;99.90
8896;DHT22;4484;48.928;10.066;2022-10-22T04:31:58;11.10;99.90
8896;DHT22;4484;48.928;10.066;2022-10-22T04:34:28;11.10;99.90
8896;DHT22;4484;48.928;10.066;2022-10-22T04:36:55;11.10;99.90
8896;DHT22;4484;48.928;10.066;2022-10-22T04:39:22;11.00;99.90
8896;DHT22;4484;48.928;10.066;2022-10-22T04:41:49;11.10;99.90
8896;DHT22;4484;48.928;10.066;2022-10-22T04:44:16;11.00;99.90
8896;DHT22;4484;48.928;10.066;2022-10-22T04:46:44;11.00;99.90
8896;DHT22;4484;48.928;10.066;2022-10-22T04:49:11;11.00;99.90
8896;DHT22;4484;48.928;10.066;2022-10-22T04:51:38;11.00;99.90
8896;DHT22;4484;48.928;10.066;2022-10-22T04:54:05;11.00;99.90
8896;DHT22;4484;48.928;10.066;2022-10-22T04:56:32;10.90;99.90
8896;DHT22;4484;48.928;10.066;2022-10-22T04:59:02;10.90;99.90
8896;DHT22;4484;48.928;10.066;2022-10-22T05:01:31;10.80;99.90
8896;DHT22;4484;48.928;10.066;2022-10-22T05:04:05;10.80;99.90
8896;DHT22;4484;48.928;10.066;2022-10-22T05:06:34;10.80;99.90
8896;DHT22;4484;48.928;10.066;2022-10-22T05:09:04;10.80;99.90
8896;DHT22;4484;48.928;10.066;2022-10-22T05:11:36;10.70;99.90
8896;DHT22;4484;48.928;10.066;2022-10-22T05:14:05;10.80;99.90
8896;DHT22;4484;48.928;10.066;2022-10-22T05:16:33;10.70;99.90
8896;DHT22;4484;48.928;10.066;2022-10-22T05:19:01;10.70;99.90
8896;DHT22;4484;48.928;10.066;2022-10-22T05:21:28;10.70;99.90
8896;DHT22;4484;48.928;10.066;2022-10-22T05:23:56;10.60;99.90
8896;DHT22;4484;48.928;10.066;2022-10-22T05:26:26;10.60;99.90
8896;DHT22;4484;48.928;10.066;2022-10-22T05:28:53;10.60;99.90
8896;DHT22;4484;48.928;10.066;2022-10-22T05:31:20;10.50;99.90
8896;DHT22;4484;48.928;10.066;2022-10-22T05:33:47;10.50;99.90
8896;DHT22;4484;48.928;10.066;2022-10-22T05:36:17;10.40;99.90
8896;DHT22;4484;48.928;10.066;2022-10-22T05:38:47;10.40;99.90
8896;DHT22;4484;48.928;10.066;2022-10-22T05:41:17;10.40;99.90
8896;DHT22;4484;48.928;10.066;2022-10-22T05:43:45;10.40;99.90
8896;DHT22;4484;48.928;10.066;2022-10-22T05:46:14;10.40;99.90
8896;DHT22;4484;48.928;10.066;2022-10-22T05:48:55;10.40;99.90
8896;DHT22;4484;48.928;10.066;2022-10-22T05:51:23;10.40;99.90
8896;DHT22;4484;48.928;10.066;2022-10-22T05:53:56;10.30;99.90
8896;DHT22;4484;48.928;10.066;2022-10-22T05:56:24;10.30;99.90
8896;DHT22;4484;48.928;10.066;2022-10-22T05:58:51;10.30;99.90
8896;DHT22;4484;48.928;10.066;2022-10-22T06:01:22;10.20;99.90
8896;DHT22;4484;48.928;10.066;2022-10-22T06:03:52;10.20;99.90
8896;DHT22;4484;48.928;10.066;2022-10-22T06:06:39;10.20;99.90
8896;DHT22;4484;48.928;10.066;2022-10-22T06:09:33;10.20;99.90
8896;DHT22;4484;48.928;10.066;2022-10-22T06:12:02;10.20;99.90
8896;DHT22;4484;48.928;10.066;2022-10-22T06:14:29;10.20;99.90
8896;DHT22;4484;48.928;10.066;2022-10-22T06:16:58;10.20;99.90
8896;DHT22;4484;48.928;10.066;2022-10-22T06:19:25;10.20;99.90
8896;DHT22;4484;48.928;10.066;2022-10-22T06:21:52;10.30;99.90
8896;DHT22;4484;48.928;10.066;2022-10-22T06:24:19;10.20;99.90
8896;DHT22;4484;48.928;10.066;2022-10-22T06:26:50;10.30;99.90
8896;DHT22;4484;48.928;10.066;2022-10-22T06:29:17;10.30;99.90
8896;DHT22;4484;48.928;10.066;2022-10-22T06:31:44;10.30;99.90
8896;DHT22;4484;48.928;10.066;2022-10-22T06:34:12;10.30;99.90
8896;DHT22;4484;48.928;10.066;2022-10-22T06:36:39;10.30;99.90
8896;DHT22;4484;48.928;10.066;2022-10-22T06:39:14;10.30;99.90
8896;DHT22;4484;48.928;10.066;2022-10-22T06:41:41;10.30;99.90
8896;DHT22;4484;48.928;10.066;2022-10-22T06:44:18;10.30;99.90
8896;DHT22;4484;48.928;10.066;2022-10-22T06:46:49;10.30;99.90
8896;DHT22;4484;48.928;10.066;2022-10-22T06:49:18;10.30;99.90
8896;DHT22;4484;48.928;10.066;2022-10-22T06:51:52;10.30;99.90
8896;DHT22;4484;48.928;10.066;2022-10-22T06:54:20;10.40;99.90
8896;DHT22;4484;48.928;10.066;2022-10-22T06:56:47;10.40;99.90
8896;DHT22;4484;48.928;10.066;2022-10-22T06:59:13;10.50;99.90
8896;DHT22;4484;48.928;10.066;2022-10-22T07:01:40;10.50;99.90
8896;DHT22;4484;48.928;10.066;2022-10-22T07:04:09;10.50;99.90
8896;DHT22;4484;48.928;10.066;2022-10-22T07:06:36;10.60;99.90
8896;DHT22;4484;48.928;10.066;2022-10-22T07:09:03;10.70;99.90
8896;DHT22;4484;48.928;10.066;2022-10-22T07:11:38;10.70;99.90
8896;DHT22;4484;48.928;10.066;2022-10-22T07:14:06;10.80;99.90
8896;DHT22;4484;48.928;10.066;2022-10-22T07:16:33;10.90;99.90
8896;DHT22;4484;48.928;10.066;2022-10-22T07:19:00;11.00;99.90
8896;DHT22;4484;48.928;10.066;2022-10-22T07:21:28;11.20;99.90
8896;DHT22;4484;48.928;10.066;2022-10-22T07:23:56;11.30;99.90
8896;DHT22;4484;48.928;10.066;2022-10-22T07:26:24;11.40;99.90
8896;DHT22;4484;48.928;10.066;2022-10-22T07:28:51;11.50;99.90
8896;DHT22;4484;48.928;10.066;2022-10-22T07:31:19;11.60;99.90
8896;DHT22;4484;48.928;10.066;2022-10-22T07:33:46;11.70;99.90
8896;DHT22;4484;48.928;10.066;2022-10-22T07:36:14;11.90;99.90
8896;DHT22;4484;48.928;10.066;2022-10-22T07:38:48;12.00;99.90
8896;DHT22;4484;48.928;10.066;2022-10-22T07:41:18;12.00;99.90
8896;DHT22;4484;48.928;10.066;2022-10-22T07:43:45;12.10;99.90
8896;DHT22;4484;48.928;10.066;2022-10-22T07:46:12;12.10;99.90
8896;DHT22;4484;48.928;10.066;2022-10-22T07:48:39;12.20;99.90
8896;DHT22;4484;48.928;10.066;2022-10-22T07:51:06;12.20;99.90
8896;DHT22;4484;48.928;10.066;2022-10-22T07:53:33;12.20;99.90
8896;DHT22;4484;48.928;10.066;2022-10-22T07:56:00;12.30;99.90
8896;DHT22;4484;48.928;10.066;2022-10-22T07:58:27;12.30;99.90
8896;DHT22;4484;48.928;10.066;2022-10-22T08:00:55;12.40;99.90
8896;DHT22;4484;48.928;10.066;2022-10-22T08:03:22;12.40;99.90
8896;DHT22;4484;48.928;10.066;2022-10-22T08:05:50;12.50;99.90
8896;DHT22;4484;48.928;10.066;2022-10-22T08:08:18;12.50;99.90
8896;DHT22;4484;48.928;10.066;2022-10-22T08:10:46;12.60;99.90
8896;DHT22;4484;48.928;10.066;2022-10-22T08:13:14;12.60;99.90
8896;DHT22;4484;48.928;10.066;2022-10-22T08:15:42;12.70;99.90
8896;DHT22;4484;48.928;10.066;2022-10-22T08:18:14;12.90;99.90
8896;DHT22;4484;48.928;10.066;2022-10-22T08:20:41;13.00;99.90
8896;DHT22;4484;48.928;10.066;2022-10-22T08:23:08;13.20;99.90
8896;DHT22;4484;48.928;10.066;2022-10-22T08:25:35;13.40;99.90
8896;DHT22;4484;48.928;10.066;2022-10-22T08:28:02;13.70;99.90
8896;DHT22;4484;48.928;10.066;2022-10-22T08:30:29;13.90;99.90
8896;DHT22;4484;48.928;10.066;2022-10-22T08:32:56;14.20;99.90
8896;DHT22;4484;48.928;10.066;2022-10-22T08:35:22;14.60;99.90
8896;DHT22;4484;48.928;10.066;2022-10-22T08:37:50;15.00;99.90
8896;DHT22;4484;48.928;10.066;2022-10-22T08:40:31;15.30;99.90
8896;DHT22;4484;48.928;10.066;2022-10-22T08:43:04;15.40;99.90
8896;DHT22;4484;48.928;10.066;2022-10-22T08:48:44;16.00;99.90
8896;DHT22;4484;48.928;10.066;2022-10-22T08:51:30;16.30;99.90
8896;DHT22;4484;48.928;10.066;2022-10-22T08:54:26;16.70;99.90
8896;DHT22;4484;48.928;10.066;2022-10-22T08:59:42;17.20;99.90
8896;DHT22;4484;48.928;10.066;2022-10-22T09:08:12;17.40;99.90
8896;DHT22;4484;48.928;10.066;2022-10-22T09:10:46;17.20;99.90
8896;DHT22;4484;48.928;10.066;2022-10-22T09:13:17;17.00;99.90
8896;DHT22;4484;48.928;10.066;2022-10-22T09:15:58;16.90;99.90
8896;DHT22;4484;48.928;10.066;2022-10-22T09:18:40;16.70;99.90
8896;DHT22;4484;48.928;10.066;2022-10-22T09:21:25;16.50;99.90
8896;DHT22;4484;48.928;10.066;2022-10-22T09:24:02;16.40;99.90
8896;DHT22;4484;48.928;10.066;2022-10-22T09:26:33;16.40;99.90
8896;DHT22;4484;48.928;10.066;2022-10-22T09:29:01;16.80;99.90
8896;DHT22;4484;48.928;10.066;2022-10-22T09:31:30;17.00;99.90
8896;DHT22;4484;48.928;10.066;2022-10-22T09:33:58;17.20;99.90
8896;DHT22;4484;48.928;10.066;2022-10-22T09:36:28;17.40;99.90
8896;DHT22;4484;48.928;10.066;2022-10-22T09:38:55;17.80;99.90
8896;DHT22;4484;48.928;10.066;2022-10-22T09:41:26;18.20;99.90
8896;DHT22;4484;48.928;10.066;2022-10-22T09:43:56;18.70;99.90
8896;DHT22;4484;48.928;10.066;2022-10-22T09:46:27;19.30;99.90
8896;DHT22;4484;48.928;10.066;2022-10-22T09:49:11;19.90;99.90
8896;DHT22;4484;48.928;10.066;2022-10-22T09:51:58;20.50;99.90
8896;DHT22;4484;48.928;10.066;2022-10-22T09:57:05;21.50;99.90
8896;DHT22;4484;48.928;10.066;2022-10-22T09:59:38;22.00;99.90
8896;DHT22;4484;48.928;10.066;2022-10-22T10:02:30;22.40;99.90
8896;DHT22;4484;48.928;10.066;2022-10-22T10:05:05;22.70;99.90
8896;DHT22;4484;48.928;10.066;2022-10-22T10:07:34;22.90;99.90
8896;DHT22;4484;48.928;10.066;2022-10-22T10:10:05;23.30;99.90
8896;DHT22;4484;48.928;10.066;2022-10-22T10:12:55;23.70;99.90
8896;DHT22;4484;48.928;10.066;2022-10-22T10:18:26;23.60;99.90
8896;DHT22;4484;48.928;10.066;2022-10-22T10:35:26;23.70;99.90
8896;DHT22;4484;48.928;10.066;2022-10-22T10:40:56;24.20;99.90
8896;DHT22;4484;48.928;10.066;2022-10-22T10:43:40;24.50;99.90
8896;DHT22;4484;48.928;10.066;2022-10-22T10:49:12;24.50;99.90
8896;DHT22;4484;48.928;10.066;2022-10-22T10:54:51;24.40;99.90
8896;DHT22;4484;48.928;10.066;2022-10-22T11:08:03;24.40;99.90
8896;DHT22;4484;48.928;10.066;2022-10-22T11:16:34;25.10;99.90
8896;DHT22;4484;48.928;10.066;2022-10-22T11:21:26;24.90;99.90
8896;DHT22;4484;48.928;10.066;2022-10-22T11:26:45;24.70;99.90
8896;DHT22;4484;48.928;10.066;2022-10-22T11:29:19;24.70;99.90
8896;DHT22;4484;48.928;10.066;2022-10-22T11:31:47;24.80;99.90
8896;DHT22;4484;48.928;10.066;2022-10-22T11:34:32;25.00;99.90
8896;DHT22;4484;48.928;10.066;2022-10-22T11:37:02;25.20;99.90
8896;DHT22;4484;48.928;10.066;2022-10-22T11:42:05;25.50;99.90
8896;DHT22;4484;48.928;10.066;2022-10-22T11:44:46;25.90;99.90
8896;DHT22;4484;48.928;10.066;2022-10-22T11:47:24;26.00;99.90
8896;DHT22;4484;48.928;10.066;2022-10-22T11:53:02;25.80;99.90
8896;DHT22;4484;48.928;10.066;2022-10-22T11:55:51;25.90;99.90
8896;DHT22;4484;48.928;10.066;2022-10-22T12:01:20;26.60;99.90
8896;DHT22;4484;48.928;10.066;2022-10-22T12:06:25;27.10;99.90
8896;DHT22;4484;48.928;10.066;2022-10-22T12:09:00;27.40;99.30
8896;DHT22;4484;48.928;10.066;2022-10-22T12:11:44;27.40;96.80
8896;DHT22;4484;48.928;10.066;2022-10-22T12:16:54;27.20;95.70
8896;DHT22;4484;48.928;10.066;2022-10-22T12:19:29;27.20;98.10
8896;DHT22;4484;48.928;10.066;2022-10-22T12:22:25;27.30;98.00
8896;DHT22;4484;48.928;10.066;2022-10-22T12:24:54;27.90;99.80
8896;DHT22;4484;48.928;10.066;2022-10-22T12:27:33;28.30;96.30
8896;DHT22;4484;48.928;10.066;2022-10-22T12:30:02;28.60;95.80
8896;DHT22;4484;48.928;10.066;2022-10-22T12:32:35;28.70;93.50
8896;DHT22;4484;48.928;10.066;2022-10-22T12:35:08;28.70;93.70
8896;DHT22;4484;48.928;10.066;2022-10-22T12:37:37;28.70;94.10
8896;DHT22;4484;48.928;10.066;2022-10-22T12:40:22;28.70;95.10
8896;DHT22;4484;48.928;10.066;2022-10-22T12:42:51;28.70;94.90
8896;DHT22;4484;48.928;10.066;2022-10-22T12:45:19;29.00;95.20
8896;DHT22;4484;48.928;10.066;2022-10-22T12:47:51;29.10;94.20
8896;DHT22;4484;48.928;10.066;2022-10-22T12:50:22;29.10;93.60
8896;DHT22;4484;48.928;10.066;2022-10-22T12:52:53;29.10;93.80
8896;DHT22;4484;48.928;10.066;2022-10-22T12:55:22;29.10;93.50
8896;DHT22;4484;48.928;10.066;2022-10-22T12:57:52;29.10;92.10
8896;DHT22;4484;48.928;10.066;2022-10-22T13:02:47;29.20;93.10
8896;DHT22;4484;48.928;10.066;2022-10-22T13:07:53;29.30;91.50
8896;DHT22;4484;48.928;10.066;2022-10-22T13:10:31;29.00;89.70
8896;DHT22;4484;48.928;10.066;2022-10-22T13:12:59;28.70;86.00
8896;DHT22;4484;48.928;10.066;2022-10-22T13:18:17;28.40;89.10
8896;DHT22;4484;48.928;10.066;2022-10-22T13:20:59;28.30;89.40
8896;DHT22;4484;48.928;10.066;2022-10-22T13:23:31;28.00;84.10
8896;DHT22;4484;48.928;10.066;2022-10-22T13:28:36;27.60;88.50
8896;DHT22;4484;48.928;10.066;2022-10-22T13:31:17;27.70;90.40
8896;DHT22;4484;48.928;10.066;2022-10-22T13:33:46;27.60;89.70
8896;DHT22;4484;48.928;10.066;2022-10-22T13:36:17;27.40;90.50
8896;DHT22;4484;48.928;10.066;2022-10-22T13:38:44;27.00;89.40
8896;DHT22;4484;48.928;10.066;2022-10-22T13:41:29;26.80;91.00
8896;DHT22;4484;48.928;10.066;2022-10-22T13:43:59;26.80;92.10
8896;DHT22;4484;48.928;10.066;2022-10-22T13:46:26;26.70;90.50
8896;DHT22;4484;48.928;10.066;2022-10-22T13:48:55;26.70;91.30
8896;DHT22;4484;48.928;10.066;2022-10-22T13:51:28;26.70;91.10
8896;DHT22;4484;48.928;10.066;2022-10-22T13:53:58;26.60;91.00
8896;DHT22;4484;48.928;10.066;2022-10-22T13:56:25;26.50;91.40
8896;DHT22;4484;48.928;10.066;2022-10-22T13:58:52;26.50;90.40
8896;DHT22;4484;48.928;10.066;2022-10-22T14:01:24;26.40;90.70
8896;DHT22;4484;48.928;10.066;2022-10-22T14:03:54;26.30;90.60
8896;DHT22;4484;48.928;10.066;2022-10-22T14:06:28;26.30;91.30
8896;DHT22;4484;48.928;10.066;2022-10-22T14:09:12;26.30;90.70
8896;DHT22;4484;48.928;10.066;2022-10-22T14:11:39;26.20;90.30
8896;DHT22;4484;48.928;10.066;2022-10-22T14:14:06;25.90;89.40
8896;DHT22;4484;48.928;10.066;2022-10-22T14:16:36;25.70;90.30
8896;DHT22;4484;48.928;10.066;2022-10-22T14:19:05;25.40;90.90
8896;DHT22;4484;48.928;10.066;2022-10-22T14:21:35;25.30;91.70
8896;DHT22;4484;48.928;10.066;2022-10-22T14:24:03;25.20;91.20
8896;DHT22;4484;48.928;10.066;2022-10-22T14:26:33;25.00;91.40
8896;DHT22;4484;48.928;10.066;2022-10-22T14:29:01;25.00;91.60
8896;DHT22;4484;48.928;10.066;2022-10-22T14:31:41;24.80;90.80
8896;DHT22;4484;48.928;10.066;2022-10-22T14:34:12;24.40;89.60
8896;DHT22;4484;48.928;10.066;2022-10-22T14:36:39;24.00;90.50
8896;DHT22;4484;48.928;10.066;2022-10-22T14:39:09;23.60;91.30
8896;DHT22;4484;48.928;10.066;2022-10-22T14:41:36;23.40;92.30
8896;DHT22;4484;48.928;10.066;2022-10-22T14:44:04;23.20;91.70
8896;DHT22;4484;48.928;10.066;2022-10-22T14:46:32;22.90;92.20
8896;DHT22;4484;48.928;10.066;2022-10-22T14:48:59;22.70;92.50
8896;DHT22;4484;48.928;10.066;2022-10-22T14:51:26;22.50;92.40
8896;DHT22;4484;48.928;10.066;2022-10-22T14:53:53;22.30;93.20
8896;DHT22;4484;48.928;10.066;2022-10-22T14:56:19;22.10;93.00
8896;DHT22;4484;48.928;10.066;2022-10-22T14:58:51;21.80;93.40
8896;DHT22;4484;48.928;10.066;2022-10-22T15:01:20;21.40;92.80
8896;DHT22;4484;48.928;10.066;2022-10-22T15:03:48;21.10;93.40
8896;DHT22;4484;48.928;10.066;2022-10-22T15:06:15;20.90;93.70
8896;DHT22;4484;48.928;10.066;2022-10-22T15:08:44;20.80;93.90
8896;DHT22;4484;48.928;10.066;2022-10-22T15:11:11;20.50;94.10
8896;DHT22;4484;48.928;10.066;2022-10-22T15:13:38;20.40;94.50
8896;DHT22;4484;48.928;10.066;2022-10-22T15:16:08;20.20;94.70
8896;DHT22;4484;48.928;10.066;2022-10-22T15:18:36;20.10;94.90
8896;DHT22;4484;48.928;10.066;2022-10-22T15:21:05;19.90;95.20
8896;DHT22;4484;48.928;10.066;2022-10-22T15:23:32;19.70;95.80
8896;DHT22;4484;48.928;10.066;2022-10-22T15:25:59;19.40;96.40
8896;DHT22;4484;48.928;10.066;2022-10-22T15:28:26;19.30;97.30
8896;DHT22;4484;48.928;10.066;2022-10-22T15:30:59;19.20;98.10
8896;DHT22;4484;48.928;10.066;2022-10-22T15:33:26;19.10;98.50
8896;DHT22;4484;48.928;10.066;2022-10-22T15:35:55;18.80;99.20
8896;DHT22;4484;48.928;10.066;2022-10-22T15:38:27;18.70;99.90
8896;DHT22;4484;48.928;10.066;2022-10-22T15:41:02;18.40;99.90
8896;DHT22;4484;48.928;10.066;2022-10-22T15:43:33;18.30;99.90
8896;DHT22;4484;48.928;10.066;2022-10-22T15:46:26;18.10;99.90
8896;DHT22;4484;48.928;10.066;2022-10-22T15:49:00;17.90;99.90
8896;DHT22;4484;48.928;10.066;2022-10-22T15:51:27;17.70;99.90
8896;DHT22;4484;48.928;10.066;2022-10-22T15:53:56;17.60;99.90
8896;DHT22;4484;48.928;10.066;2022-10-22T15:56:25;17.50;99.90
8896;DHT22;4484;48.928;10.066;2022-10-22T15:58:56;17.40;99.90
8896;DHT22;4484;48.928;10.066;2022-10-22T16:01:24;17.30;99.90
8896;DHT22;4484;48.928;10.066;2022-10-22T16:03:51;17.20;99.90
8896;DHT22;4484;48.928;10.066;2022-10-22T16:06:26;17.10;99.90
8896;DHT22;4484;48.928;10.066;2022-10-22T16:08:56;17.00;99.90
8896;DHT22;4484;48.928;10.066;2022-10-22T16:11:23;16.90;99.90
8896;DHT22;4484;48.928;10.066;2022-10-22T16:13:54;16.70;99.90
8896;DHT22;4484;48.928;10.066;2022-10-22T16:16:23;16.70;99.90
8896;DHT22;4484;48.928;10.066;2022-10-22T16:18:50;16.50;99.90
8896;DHT22;4484;48.928;10.066;2022-10-22T16:21:18;16.40;99.90
8896;DHT22;4484;48.928;10.066;2022-10-22T16:23:45;16.20;99.90
8896;DHT22;4484;48.928;10.066;2022-10-22T16:26:13;16.00;99.90
8896;DHT22;4484;48.928;10.066;2022-10-22T16:28:41;15.90;99.90
8896;DHT22;4484;48.928;10.066;2022-10-22T16:31:10;15.70;99.90
8896;DHT22;4484;48.928;10.066;2022-10-22T16:33:39;15.60;99.90
8896;DHT22;4484;48.928;10.066;2022-10-22T16:36:14;15.40;99.90
8896;DHT22;4484;48.928;10.066;2022-10-22T16:38:43;15.30;99.90
8896;DHT22;4484;48.928;10.066;2022-10-22T16:41:17;15.10;99.90
8896;DHT22;4484;48.928;10.066;2022-10-22T16:43:46;15.00;99.90
8896;DHT22;4484;48.928;10.066;2022-10-22T16:46:18;14.80;99.90
8896;DHT22;4484;48.928;10.066;2022-10-22T16:48:48;14.70;99.90
8896;DHT22;4484;48.928;10.066;2022-10-22T16:51:22;14.60;99.90
8896;DHT22;4484;48.928;10.066;2022-10-22T16:53:51;14.40;99.90
8896;DHT22;4484;48.928;10.066;2022-10-22T16:56:18;14.30;99.90
8896;DHT22;4484;48.928;10.066;2022-10-22T16:58:48;14.10;99.90
8896;DHT22;4484;48.928;10.066;2022-10-22T17:01:17;14.00;99.90
8896;DHT22;4484;48.928;10.066;2022-10-22T17:03:45;13.90;99.90
8896;DHT22;4484;48.928;10.066;2022-10-22T17:06:12;13.80;99.90
8896;DHT22;4484;48.928;10.066;2022-10-22T17:08:40;13.70;99.90
8896;DHT22;4484;48.928;10.066;2022-10-22T17:11:09;13.60;99.90
8896;DHT22;4484;48.928;10.066;2022-10-22T17:13:38;13.50;99.90
8896;DHT22;4484;48.928;10.066;2022-10-22T17:16:08;13.50;99.90
8896;DHT22;4484;48.928;10.066;2022-10-22T17:18:37;13.40;99.90
8896;DHT22;4484;48.928;10.066;2022-10-22T17:21:06;13.30;99.90
8896;DHT22;4484;48.928;10.066;2022-10-22T17:23:33;13.20;99.90
8896;DHT22;4484;48.928;10.066;2022-10-22T17:26:03;13.10;99.90
8896;DHT22;4484;48.928;10.066;2022-10-22T17:28:34;13.00;99.90
8896;DHT22;4484;48.928;10.066;2022-10-22T17:31:06;12.90;99.90
8896;DHT22;4484;48.928;10.066;2022-10-22T17:33:34;12.80;99.90
8896;DHT22;4484;48.928;10.066;2022-10-22T17:36:05;12.70;99.90
8896;DHT22;4484;48.928;10.066;2022-10-22T17:38:34;12.70;99.90
8896;DHT22;4484;48.928;10.066;2022-10-22T17:41:01;12.70;99.90
8896;DHT22;4484;48.928;10.066;2022-10-22T17:43:33;12.60;99.90
8896;DHT22;4484;48.928;10.066;2022-10-22T17:46:07;12.50;99.90
8896;DHT22;4484;48.928;10.066;2022-10-22T17:48:36;12.50;99.90
8896;DHT22;4484;48.928;10.066;2022-10-22T17:51:06;12.40;99.90
8896;DHT22;4484;48.928;10.066;2022-10-22T17:53:33;12.40;99.90